createdAt,value
2023-04-30T00:00:01.820Z,48.54
2023-04-30T00:02:28.656Z,48.53
2023-04-30T00:04:55.492Z,48.42
2023-04-30T00:07:22.290Z,48.52
2023-04-30T00:09:50.180Z,48.68
2023-04-30T00:12:17.056Z,48.39
2023-04-30T00:14:43.861Z,48.40
2023-04-30T00:17:10.678Z,48.42
2023-04-30T00:19:37.538Z,48.48
2023-04-30T00:22:05.414Z,48.62
2023-04-30T00:24:32.241Z,48.58
2023-04-30T00:26:59.032Z,48.68
2023-04-30T00:29:25.825Z,48.69
2023-04-30T00:31:52.630Z,48.53
2023-04-30T00:34:19.418Z,48.53
2023-04-30T00:36:46.203Z,48.71
2023-04-30T00:39:13.197Z,48.42
2023-04-30T00:41:40.220Z,48.65
2023-04-30T00:44:07.076Z,48.58
2023-04-30T00:46:33.862Z,48.64
2023-04-30T00:49:04.763Z,48.72
2023-04-30T00:51:35.685Z,48.70
2023-04-30T00:54:03.533Z,48.71
2023-04-30T00:56:31.434Z,48.59
2023-04-30T00:58:58.455Z,48.80
2023-04-30T01:01:32.084Z,48.72
2023-04-30T01:04:00.897Z,48.85
2023-04-30T01:06:28.074Z,48.67
2023-04-30T01:08:57.255Z,48.84
2023-04-30T01:11:52.698Z,48.82
2023-04-30T01:14:33.813Z,48.83
2023-04-30T01:17:13.409Z,48.88
2023-04-30T01:19:45.979Z,48.82
2023-04-30T01:22:27.098Z,48.83
2023-04-30T01:25:25.662Z,48.86
2023-04-30T01:28:19.417Z,48.66
2023-04-30T01:30:47.340Z,49.04
2023-04-30T01:33:14.442Z,48.86
2023-04-30T01:36:22.675Z,48.86
2023-04-30T01:39:31.753Z,49.24
2023-04-30T01:42:14.284Z,48.88
2023-04-30T01:45:16.111Z,49.09
2023-04-30T01:47:54.250Z,49.06
2023-04-30T01:50:49.920Z,49.24
2023-04-30T01:53:38.245Z,49.26
2023-04-30T01:56:28.305Z,49.42
2023-04-30T01:58:55.560Z,49.52
2023-04-30T02:01:33.495Z,49.39
2023-04-30T02:04:00.944Z,49.24
2023-04-30T02:06:31.250Z,49.19
2023-04-30T02:09:06.377Z,49.41
2023-04-30T02:11:33.168Z,49.29
2023-04-30T02:13:59.928Z,49.21
2023-04-30T02:16:26.963Z,49.37
2023-04-30T02:18:53.816Z,49.26
2023-04-30T02:21:21.070Z,49.43
2023-04-30T02:23:47.997Z,49.54
2023-04-30T02:26:14.780Z,49.55
2023-04-30T02:28:42.430Z,49.51
2023-04-30T02:31:09.281Z,49.52
2023-04-30T02:33:36.069Z,49.67
2023-04-30T02:36:03.131Z,49.81
2023-04-30T02:38:29.896Z,49.48
2023-04-30T02:40:56.756Z,49.69
2023-04-30T02:43:23.578Z,49.77
2023-04-30T02:45:50.411Z,49.66
2023-04-30T02:48:17.267Z,49.55
2023-04-30T02:50:44.047Z,49.72
2023-04-30T02:53:11.218Z,49.51
2023-04-30T02:55:37.987Z,49.60
2023-04-30T02:58:04.908Z,49.71
2023-04-30T03:00:31.690Z,49.63
2023-04-30T03:03:01.392Z,49.70
2023-04-30T03:05:28.818Z,49.90
2023-04-30T03:07:55.972Z,50.16
2023-04-30T03:10:22.752Z,49.99
2023-04-30T03:12:49.571Z,49.97
2023-04-30T03:15:16.399Z,49.79
2023-04-30T03:17:45.921Z,49.87
2023-04-30T03:20:13.926Z,49.65
2023-04-30T03:22:41.666Z,49.81
2023-04-30T03:25:09.264Z,49.69
2023-04-30T03:27:36.280Z,49.91
2023-04-30T03:30:03.075Z,49.71
2023-04-30T03:32:29.838Z,50.17
2023-04-30T03:34:56.614Z,49.82
2023-04-30T03:37:23.398Z,50.03
2023-04-30T03:39:50.225Z,49.90
2023-04-30T03:42:17.032Z,50.03
2023-04-30T03:44:43.788Z,49.92
2023-04-30T03:47:10.674Z,49.86
2023-04-30T03:49:37.665Z,49.86
2023-04-30T03:52:05.526Z,49.91
2023-04-30T03:54:33.712Z,49.98
2023-04-30T03:57:03.682Z,49.97
2023-04-30T03:59:32.693Z,49.95
2023-04-30T04:02:01.658Z,49.87
2023-04-30T04:04:30.194Z,50.20
2023-04-30T04:06:57.157Z,49.94
2023-04-30T04:09:23.898Z,49.96
2023-04-30T04:11:50.789Z,49.98
2023-04-30T04:14:17.535Z,49.71
2023-04-30T04:16:44.699Z,50.17
2023-04-30T04:19:13.191Z,50.30
2023-04-30T04:21:39.973Z,49.91
2023-04-30T04:24:08.615Z,50.01
2023-04-30T04:26:36.519Z,50.25
2023-04-30T04:29:08.653Z,50.29
2023-04-30T04:31:35.657Z,50.13
2023-04-30T04:34:04.532Z,50.17
2023-04-30T04:36:31.997Z,50.51
2023-04-30T04:39:01.940Z,50.52
2023-04-30T04:41:33.879Z,50.36
2023-04-30T04:44:04.664Z,50.48
2023-04-30T04:46:32.781Z,50.82
2023-04-30T04:48:59.608Z,50.56
2023-04-30T04:51:26.833Z,50.94
2023-04-30T04:53:53.723Z,50.52
2023-04-30T04:56:20.850Z,51.03
2023-04-30T04:58:47.811Z,51.73
2023-04-30T05:01:14.689Z,51.68
2023-04-30T05:03:41.652Z,51.61
2023-04-30T05:06:08.583Z,51.97
2023-04-30T05:08:35.455Z,51.89
2023-04-30T05:11:02.348Z,51.91
2023-04-30T05:13:29.145Z,51.63
2023-04-30T05:15:56.340Z,51.12
2023-04-30T05:18:23.116Z,50.81
2023-04-30T05:20:49.973Z,50.69
2023-04-30T05:23:16.763Z,50.36
2023-04-30T05:25:43.678Z,50.62
2023-04-30T05:28:10.531Z,50.61
2023-04-30T05:30:37.326Z,50.47
2023-04-30T05:33:04.278Z,50.25
2023-04-30T05:35:31.617Z,50.35
2023-04-30T05:37:58.434Z,50.32
2023-04-30T05:40:25.297Z,50.22
2023-04-30T05:42:52.086Z,50.36
2023-04-30T05:45:18.973Z,50.39
2023-04-30T05:47:45.834Z,50.40
2023-04-30T05:50:12.640Z,50.65
2023-04-30T05:52:39.414Z,50.57
2023-04-30T05:55:07.208Z,50.08
2023-04-30T05:57:35.180Z,49.72
2023-04-30T06:00:02.498Z,49.79
2023-04-30T06:02:29.382Z,49.89
2023-04-30T06:04:56.620Z,49.66
2023-04-30T06:07:23.379Z,49.95
2023-04-30T06:09:50.144Z,49.64
2023-04-30T06:12:16.955Z,49.88
2023-04-30T06:14:45.398Z,49.95
2023-04-30T06:17:13.488Z,49.63
2023-04-30T06:19:40.251Z,49.06
2023-04-30T06:22:07.003Z,48.78
2023-04-30T06:24:33.793Z,48.39
2023-04-30T06:27:01.121Z,48.55
2023-04-30T06:29:27.893Z,48.58
2023-04-30T06:31:54.763Z,48.84
2023-04-30T06:34:21.800Z,49.30
2023-04-30T06:36:48.723Z,49.00
2023-04-30T06:39:16.309Z,48.98
2023-04-30T06:41:43.417Z,48.26
2023-04-30T06:44:10.409Z,48.49
2023-04-30T06:46:37.297Z,48.43
2023-04-30T06:49:04.168Z,48.24
2023-04-30T06:51:30.960Z,47.78
2023-04-30T06:53:57.769Z,47.78
2023-04-30T06:56:24.870Z,47.91
2023-04-30T06:58:51.615Z,48.24
2023-04-30T07:01:18.592Z,48.16
2023-04-30T07:03:45.490Z,47.77
2023-04-30T07:06:12.365Z,47.80
2023-04-30T07:08:41.034Z,47.26
2023-04-30T07:11:08.032Z,46.83
2023-04-30T07:13:34.841Z,47.11
2023-04-30T07:16:01.888Z,46.96
2023-04-30T07:18:28.675Z,46.77
2023-04-30T07:20:55.617Z,47.12
2023-04-30T07:23:22.548Z,46.71
2023-04-30T07:25:49.667Z,45.92
2023-04-30T07:28:16.413Z,45.41
2023-04-30T07:30:43.188Z,45.62
2023-04-30T07:33:10.166Z,45.18
2023-04-30T07:35:37.031Z,45.04
2023-04-30T07:38:05.394Z,45.14
2023-04-30T07:40:36.159Z,44.61
2023-04-30T07:43:04.578Z,45.51
2023-04-30T07:45:31.753Z,45.75
2023-04-30T07:47:58.675Z,45.28
2023-04-30T07:50:25.561Z,44.76
2023-04-30T07:52:52.319Z,44.52
2023-04-30T07:55:19.323Z,44.02
2023-04-30T07:57:46.250Z,44.14
2023-04-30T08:00:14.632Z,43.64
2023-04-30T08:02:44.115Z,43.52
2023-04-30T08:05:11.529Z,43.94
2023-04-30T08:07:39.556Z,43.94
2023-04-30T08:10:07.474Z,43.79
2023-04-30T08:12:37.174Z,43.98
2023-04-30T08:15:05.919Z,44.14
2023-04-30T08:17:33.671Z,43.43
2023-04-30T08:20:01.605Z,43.18
2023-04-30T08:22:28.545Z,42.42
2023-04-30T08:24:55.726Z,42.38
2023-04-30T08:27:23.343Z,42.40
2023-04-30T08:29:50.176Z,42.66
2023-04-30T08:32:19.788Z,43.36
2023-04-30T08:34:46.744Z,42.63
2023-04-30T08:37:13.536Z,42.46
2023-04-30T08:39:40.446Z,42.68
2023-04-30T08:42:09.663Z,43.55
2023-04-30T08:44:43.476Z,42.90
2023-04-30T08:47:14.560Z,42.80
2023-04-30T08:49:41.923Z,42.70
2023-04-30T08:52:09.070Z,42.50
2023-04-30T08:54:38.666Z,42.42
2023-04-30T08:57:05.882Z,42.57
2023-04-30T08:59:32.640Z,42.64
2023-04-30T09:02:01.914Z,42.49
2023-04-30T09:04:29.223Z,41.62
2023-04-30T09:07:04.830Z,41.72
2023-04-30T09:09:38.692Z,41.28
2023-04-30T09:12:19.589Z,41.78
2023-04-30T09:15:09.035Z,41.92
2023-04-30T09:17:36.062Z,42.28
2023-04-30T09:20:13.699Z,42.63
2023-04-30T09:22:42.357Z,42.48
2023-04-30T09:25:11.220Z,42.20
2023-04-30T09:27:38.002Z,41.23
2023-04-30T09:30:05.638Z,40.79
2023-04-30T09:32:32.503Z,40.88
2023-04-30T09:34:59.578Z,40.70
2023-04-30T09:37:44.864Z,40.44
2023-04-30T09:40:12.522Z,40.49
2023-04-30T09:42:40.001Z,40.97
2023-04-30T09:45:08.004Z,41.13
2023-04-30T09:47:35.801Z,40.47
2023-04-30T09:50:02.700Z,40.73
2023-04-30T09:52:29.507Z,40.87
2023-04-30T09:54:56.292Z,40.57
2023-04-30T09:57:25.004Z,40.77
2023-04-30T09:59:53.406Z,40.68
2023-04-30T10:02:23.362Z,40.82
2023-04-30T10:04:56.513Z,40.84
2023-04-30T10:07:25.235Z,40.15
2023-04-30T10:10:12.527Z,40.02
2023-04-30T10:12:47.408Z,39.78
2023-04-30T10:15:31.431Z,40.37
2023-04-30T10:18:05.061Z,40.48
2023-04-30T10:20:36.494Z,40.37
2023-04-30T10:23:03.367Z,40.29
2023-04-30T10:25:30.640Z,40.03
2023-04-30T10:27:57.470Z,39.33
2023-04-30T10:30:24.395Z,39.39
2023-04-30T10:33:16.654Z,39.77
2023-04-30T10:36:04.427Z,40.07
2023-04-30T10:38:34.177Z,40.24
2023-04-30T10:41:02.049Z,40.31
2023-04-30T10:43:33.070Z,40.26
2023-04-30T10:46:00.182Z,40.03
2023-04-30T10:48:27.483Z,39.81
2023-04-30T10:51:01.412Z,39.74
2023-04-30T10:53:31.790Z,39.58
2023-04-30T10:56:06.780Z,38.92
2023-04-30T10:58:39.493Z,38.75
2023-04-30T11:01:14.645Z,38.79
2023-04-30T11:03:43.775Z,38.23
2023-04-30T11:06:19.498Z,37.51
2023-04-30T11:08:46.997Z,37.85
2023-04-30T11:11:23.738Z,38.05
2023-04-30T11:14:01.636Z,37.42
2023-04-30T11:16:34.956Z,37.01
2023-04-30T11:19:14.296Z,36.74
2023-04-30T11:21:42.307Z,36.37
2023-04-30T11:24:09.090Z,36.85
2023-04-30T11:27:07.042Z,36.42
2023-04-30T11:29:34.993Z,35.75
2023-04-30T11:32:02.066Z,36.07
2023-04-30T11:34:29.412Z,35.77
2023-04-30T11:36:59.843Z,35.80
2023-04-30T11:39:29.751Z,36.15
2023-04-30T11:41:57.378Z,36.36
2023-04-30T11:44:27.868Z,35.90
2023-04-30T11:46:55.014Z,36.01
2023-04-30T11:49:21.932Z,36.37
2023-04-30T11:51:50.694Z,36.30
2023-04-30T11:54:18.430Z,35.26
2023-04-30T11:56:49.420Z,35.16
2023-04-30T11:59:17.638Z,35.19
2023-04-30T12:01:44.847Z,35.34
2023-04-30T12:04:12.193Z,34.99
2023-04-30T12:06:39.721Z,34.91
2023-04-30T12:09:09.280Z,35.14
2023-04-30T12:11:36.455Z,35.18
2023-04-30T12:14:12.843Z,34.71
2023-04-30T12:16:52.063Z,34.64
2023-04-30T12:19:21.902Z,34.62
2023-04-30T12:21:49.970Z,34.90
2023-04-30T12:24:19.277Z,34.29
2023-04-30T12:26:47.909Z,34.03
2023-04-30T12:29:19.017Z,34.36
2023-04-30T12:31:49.653Z,33.69
2023-04-30T12:34:17.060Z,34.01
2023-04-30T12:36:43.903Z,33.46
2023-04-30T12:39:13.520Z,32.95
2023-04-30T12:41:45.782Z,33.40
2023-04-30T12:44:27.560Z,33.30
2023-04-30T12:46:57.519Z,32.57
2023-04-30T12:49:25.894Z,32.33
2023-04-30T12:51:58.478Z,32.58
2023-04-30T12:54:28.008Z,32.39
2023-04-30T12:57:07.427Z,32.22
2023-04-30T12:59:39.576Z,31.75
2023-04-30T13:02:14.720Z,32.25
2023-04-30T13:04:43.064Z,31.82
2023-04-30T13:07:10.848Z,31.99
2023-04-30T13:09:38.752Z,31.69
2023-04-30T13:12:06.322Z,31.63
2023-04-30T13:14:33.684Z,30.84
2023-04-30T13:17:01.438Z,30.90
2023-04-30T13:19:30.160Z,31.08
2023-04-30T13:21:58.865Z,31.05
2023-04-30T13:24:25.662Z,31.19
2023-04-30T13:26:52.452Z,31.09
2023-04-30T13:29:21.779Z,30.79
2023-04-30T13:31:49.201Z,30.24
2023-04-30T13:34:16.105Z,30.15
2023-04-30T13:36:42.894Z,30.01
2023-04-30T13:39:09.635Z,30.47
2023-04-30T13:41:36.441Z,30.17
2023-04-30T13:44:03.313Z,30.02
2023-04-30T13:46:30.502Z,30.10
2023-04-30T13:48:57.285Z,30.11
2023-04-30T13:51:24.072Z,30.09
2023-04-30T13:53:51.008Z,29.73
2023-04-30T13:56:17.768Z,29.17
2023-04-30T13:58:46.374Z,28.51
2023-04-30T14:01:14.380Z,29.12
2023-04-30T14:03:41.328Z,29.29
2023-04-30T14:06:08.298Z,29.73
2023-04-30T14:08:35.082Z,29.67
2023-04-30T14:11:01.889Z,29.77
2023-04-30T14:13:29.516Z,29.63
2023-04-30T14:15:56.298Z,29.64
2023-04-30T14:18:26.158Z,29.49
2023-04-30T14:20:52.950Z,29.53
2023-04-30T14:23:19.724Z,29.58
2023-04-30T14:25:46.485Z,29.78
2023-04-30T14:28:13.301Z,28.90
2023-04-30T14:30:40.070Z,28.87
2023-04-30T14:33:07.167Z,28.94
2023-04-30T14:35:34.061Z,28.90
2023-04-30T14:38:03.588Z,28.88
2023-04-30T14:40:30.498Z,28.02
2023-04-30T14:42:57.361Z,28.08
2023-04-30T14:45:24.176Z,27.85
2023-04-30T14:47:50.982Z,27.56
2023-04-30T14:50:17.972Z,27.76
2023-04-30T14:52:44.728Z,27.88
2023-04-30T14:55:11.589Z,27.17
2023-04-30T14:57:38.396Z,27.48
2023-04-30T15:00:06.706Z,27.74
2023-04-30T15:02:33.687Z,27.45
2023-04-30T15:05:00.613Z,27.71
2023-04-30T15:07:27.739Z,27.11
2023-04-30T15:09:54.762Z,27.27
2023-04-30T15:12:22.371Z,27.44
2023-04-30T15:14:49.317Z,27.03
2023-04-30T15:17:16.150Z,26.34
2023-04-30T15:19:43.530Z,26.30
2023-04-30T15:22:10.573Z,26.14
2023-04-30T15:24:37.337Z,25.74
2023-04-30T15:27:04.369Z,25.82
2023-04-30T15:29:31.431Z,25.34
2023-04-30T15:31:59.616Z,25.85
2023-04-30T15:34:26.597Z,26.11
2023-04-30T15:36:53.371Z,26.43
2023-04-30T15:39:21.885Z,26.11
2023-04-30T15:41:48.718Z,26.22
2023-04-30T15:44:15.510Z,26.38
2023-04-30T15:46:42.398Z,26.49
2023-04-30T15:49:09.379Z,25.94
2023-04-30T15:51:36.868Z,26.49
2023-04-30T15:54:03.698Z,26.43
2023-04-30T15:56:30.532Z,26.51
2023-04-30T15:58:57.817Z,25.80
2023-04-30T16:01:24.721Z,26.54
2023-04-30T16:03:52.131Z,26.95
2023-04-30T16:06:20.096Z,26.83
2023-04-30T16:08:47.197Z,27.19
2023-04-30T16:11:13.962Z,27.37
2023-04-30T16:13:40.764Z,27.06
2023-04-30T16:16:08.748Z,27.58
2023-04-30T16:18:35.730Z,27.07
2023-04-30T16:21:02.627Z,27.64
2023-04-30T16:23:29.435Z,27.37
2023-04-30T16:25:56.371Z,27.36
2023-04-30T16:28:23.575Z,27.67
2023-04-30T16:30:50.468Z,27.67
2023-04-30T16:33:17.422Z,27.65
2023-04-30T16:35:44.405Z,27.57
2023-04-30T16:38:11.251Z,27.44
2023-04-30T16:40:38.117Z,27.34
2023-04-30T16:43:06.114Z,27.32
2023-04-30T16:45:33.304Z,27.26
2023-04-30T16:48:00.390Z,27.66
2023-04-30T16:50:27.349Z,27.48
2023-04-30T16:52:54.481Z,27.75
2023-04-30T16:55:21.363Z,27.70
2023-04-30T16:57:48.211Z,27.79
2023-04-30T17:00:16.624Z,27.75
2023-04-30T17:02:48.813Z,27.75
2023-04-30T17:05:16.540Z,27.91
2023-04-30T17:07:44.428Z,28.10
2023-04-30T17:10:12.653Z,27.65
2023-04-30T17:12:40.336Z,27.75
2023-04-30T17:15:07.862Z,27.95
2023-04-30T17:17:34.672Z,28.00
2023-04-30T17:20:01.586Z,27.89
2023-04-30T17:22:28.427Z,27.76
2023-04-30T17:24:55.655Z,27.16
2023-04-30T17:27:23.306Z,27.82
2023-04-30T17:29:50.888Z,27.44
2023-04-30T17:32:17.897Z,27.78
2023-04-30T17:34:44.870Z,27.63
2023-04-30T17:37:11.892Z,27.59
2023-04-30T17:39:38.647Z,27.73
2023-04-30T17:42:05.486Z,28.01
2023-04-30T17:44:33.556Z,27.87
2023-04-30T17:47:00.450Z,28.25
2023-04-30T17:49:28.405Z,27.75
2023-04-30T17:51:55.202Z,28.20
2023-04-30T17:54:22.005Z,28.34
2023-04-30T17:56:51.780Z,27.95
2023-04-30T17:59:18.675Z,27.84
2023-04-30T18:01:45.864Z,28.35
2023-04-30T18:04:20.588Z,28.55
2023-04-30T18:06:48.157Z,28.42
2023-04-30T18:09:16.336Z,28.63
2023-04-30T18:11:43.472Z,28.50
2023-04-30T18:14:10.527Z,28.92
2023-04-30T18:16:37.373Z,29.00
2023-04-30T18:19:05.054Z,29.17
2023-04-30T18:21:32.126Z,29.57
2023-04-30T18:24:00.084Z,29.52
2023-04-30T18:26:26.886Z,29.75
2023-04-30T18:28:55.370Z,29.83
2023-04-30T18:31:22.228Z,29.97
2023-04-30T18:33:49.098Z,30.09
2023-04-30T18:36:16.276Z,30.20
2023-04-30T18:38:47.494Z,30.21
2023-04-30T18:41:14.240Z,30.57
2023-04-30T18:43:42.440Z,30.50
2023-04-30T18:46:09.302Z,30.73
2023-04-30T18:48:36.508Z,31.09
2023-04-30T18:51:03.348Z,31.16
2023-04-30T18:53:30.134Z,31.35
2023-04-30T18:55:57.985Z,31.41
2023-04-30T18:58:24.827Z,31.50
2023-04-30T19:00:51.792Z,31.67
2023-04-30T19:03:19.649Z,31.83
2023-04-30T19:05:46.523Z,32.07
2023-04-30T19:08:13.326Z,32.04
2023-04-30T19:10:40.126Z,32.11
2023-04-30T19:13:07.077Z,32.08
2023-04-30T19:15:33.916Z,32.18
2023-04-30T19:18:01.206Z,32.37
2023-04-30T19:20:28.030Z,32.58
2023-04-30T19:22:54.835Z,32.71
2023-04-30T19:25:23.334Z,32.77
2023-04-30T19:27:50.158Z,32.83
2023-04-30T19:30:17.049Z,32.69
2023-04-30T19:32:44.001Z,33.03
2023-04-30T19:35:10.901Z,33.14
2023-04-30T19:37:37.716Z,33.26
2023-04-30T19:40:11.719Z,33.42
2023-04-30T19:42:39.856Z,33.37
2023-04-30T19:45:09.436Z,33.63
2023-04-30T19:47:36.714Z,33.70
2023-04-30T19:50:03.736Z,33.62
2023-04-30T19:52:30.514Z,34.04
2023-04-30T19:54:57.494Z,34.02
2023-04-30T19:57:24.323Z,34.03
2023-04-30T19:59:51.547Z,34.10
2023-04-30T20:02:19.039Z,34.29
2023-04-30T20:04:45.860Z,34.21
2023-04-30T20:07:13.781Z,34.70
2023-04-30T20:09:40.779Z,34.72
2023-04-30T20:12:07.583Z,34.71
2023-04-30T20:14:34.334Z,34.90
2023-04-30T20:17:02.451Z,35.06
2023-04-30T20:19:29.300Z,35.17
2023-04-30T20:21:56.193Z,35.29
2023-04-30T20:24:23.153Z,35.56
2023-04-30T20:26:49.908Z,35.46
2023-04-30T20:29:18.479Z,35.67
2023-04-30T20:31:45.373Z,35.81
2023-04-30T20:34:12.199Z,35.52
2023-04-30T20:36:38.992Z,35.94
2023-04-30T20:39:05.775Z,35.69
2023-04-30T20:41:32.566Z,35.90
2023-04-30T20:44:00.773Z,35.90
2023-04-30T20:46:28.272Z,36.37
2023-04-30T20:49:00.993Z,36.29
2023-04-30T20:51:28.462Z,36.38
2023-04-30T20:53:55.376Z,36.34
2023-04-30T20:56:22.487Z,36.59
2023-04-30T20:58:49.367Z,36.60
2023-04-30T21:01:16.252Z,36.63
2023-04-30T21:03:43.146Z,36.59
2023-04-30T21:06:10.905Z,36.82
2023-04-30T21:08:37.781Z,36.81
2023-04-30T21:11:04.631Z,36.95
2023-04-30T21:13:31.413Z,36.87
2023-04-30T21:15:58.202Z,37.04
2023-04-30T21:18:27.574Z,36.99
2023-04-30T21:20:56.233Z,37.09
2023-04-30T21:23:23.036Z,36.79
2023-04-30T21:25:54.255Z,37.07
2023-04-30T21:28:21.140Z,37.10
2023-04-30T21:30:48.020Z,37.24
2023-04-30T21:33:15.318Z,37.23
2023-04-30T21:35:42.185Z,37.32
2023-04-30T21:38:10.899Z,37.67
2023-04-30T21:40:37.779Z,37.52
2023-04-30T21:43:04.685Z,37.55
2023-04-30T21:45:34.949Z,37.71
2023-04-30T21:48:01.795Z,37.58
2023-04-30T21:50:28.616Z,37.71
2023-04-30T21:52:55.374Z,37.70
2023-04-30T21:55:22.200Z,37.80
2023-04-30T21:57:51.273Z,37.81
2023-04-30T22:00:18.638Z,37.70
2023-04-30T22:02:45.445Z,37.71
2023-04-30T22:05:12.991Z,37.86
2023-04-30T22:07:40.949Z,37.92
2023-04-30T22:10:08.236Z,38.08
2023-04-30T22:12:35.440Z,37.76
2023-04-30T22:15:03.589Z,37.73
2023-04-30T22:17:30.504Z,37.84
2023-04-30T22:19:59.864Z,37.43
2023-04-30T22:22:26.926Z,37.60
2023-04-30T22:24:53.716Z,37.83
2023-04-30T22:27:20.484Z,37.59
2023-04-30T22:29:49.794Z,37.54
2023-04-30T22:32:17.195Z,37.57
2023-04-30T22:34:43.978Z,37.66
2023-04-30T22:37:10.960Z,37.72
2023-04-30T22:39:38.753Z,37.79
2023-04-30T22:42:05.960Z,37.81
2023-04-30T22:44:33.637Z,37.75
2023-04-30T22:47:01.938Z,37.83
2023-04-30T22:49:31.522Z,37.92
2023-04-30T22:51:58.922Z,37.85
2023-04-30T22:54:25.753Z,37.88
2023-04-30T22:56:52.552Z,38.04
2023-04-30T22:59:19.334Z,38.09
2023-04-30T23:01:46.204Z,37.99
2023-04-30T23:04:13.677Z,38.22
2023-04-30T23:06:41.378Z,38.64
2023-04-30T23:09:08.479Z,38.52
2023-04-30T23:11:35.511Z,38.53
2023-04-30T23:14:02.468Z,38.27
2023-04-30T23:16:29.289Z,38.63
2023-04-30T23:18:56.621Z,38.68
2023-04-30T23:21:23.785Z,38.66
2023-04-30T23:23:50.644Z,38.58
2023-04-30T23:26:17.404Z,38.70
2023-04-30T23:28:44.163Z,38.63
2023-04-30T23:31:10.927Z,38.72
2023-04-30T23:33:37.984Z,38.79
2023-04-30T23:36:05.311Z,38.91
2023-04-30T23:38:32.105Z,38.74
2023-04-30T23:40:58.902Z,39.11
2023-04-30T23:43:25.791Z,39.18
2023-04-30T23:45:52.593Z,39.22
2023-04-30T23:48:19.393Z,39.26
2023-04-30T23:50:47.136Z,39.24
2023-04-30T23:53:16.983Z,39.41
2023-04-30T23:55:43.995Z,39.44
2023-04-30T23:58:10.796Z,39.74
